Time;durP1;ratioP1;P1;durP2;ratioP2;P2;SDS_P1;SDS_P2;PMS_P1;PMS_P2;Temp;Humidity;BMP_temperature;BMP_pressure;BME280_temperature;BME280_humidity;BME280_pressure;Samples;Min_cycle;Max_cycle;Signal;HPM_P1;HPM_P2
2024/03/12 00:00:58;;;;;;;7.97;4.07;;;11.60;96.70;;;;;;4933615;29;20074;-71
2024/03/12 00:03:27;;;;;;;10.02;4.85;;;11.60;96.70;;;;;;4933184;29;20043;-70
2024/03/12 00:05:59;;;;;;;5.53;3.83;;;11.60;96.70;;;;;;4950319;29;20082;-71
2024/03/12 00:08:29;;;;;;;6.05;4.00;;;11.60;96.70;;;;;;4932908;29;20151;-70
2024/03/12 00:10:58;;;;;;;4.13;3.15;;;11.60;96.70;;;;;;4927633;29;20149;-71
2024/03/12 00:13:32;;;;;;;6.65;3.22;;;11.60;96.70;;;;;;4933275;29;20605;-70
2024/03/12 00:16:01;;;;;;;3.33;2.55;;;11.60;96.70;;;;;;4925367;29;20059;-70
2024/03/12 00:18:32;;;;;;;4.55;2.70;;;11.60;96.70;;;;;;4932756;29;20079;-70
2024/03/12 00:21:02;;;;;;;6.00;3.45;;;11.60;96.70;;;;;;4933075;29;20244;-70
2024/03/12 00:23:32;;;;;;;7.78;2.90;;;11.60;96.70;;;;;;4924993;29;20520;-71
2024/03/12 00:26:03;;;;;;;5.72;3.25;;;11.50;96.70;;;;;;4932728;29;20051;-70
2024/03/12 00:28:33;;;;;;;4.53;2.63;;;11.50;96.70;;;;;;4933307;29;20059;-71
2024/03/12 00:31:05;;;;;;;5.60;2.85;;;11.50;96.70;;;;;;4918023;29;20054;-70
2024/03/12 00:33:35;;;;;;;3.53;2.25;;;11.50;96.70;;;;;;4916551;29;20052;-70
2024/03/12 00:36:05;;;;;;;3.17;2.00;;;11.50;96.70;;;;;;4930718;29;20051;-70
2024/03/12 00:38:37;;;;;;;3.28;2.05;;;11.50;96.70;;;;;;4914103;29;20055;-71
2024/03/12 00:41:07;;;;;;;3.60;2.10;;;11.50;96.70;;;;;;4940204;29;20059;-70
2024/03/12 00:43:42;;;;;;;3.03;1.77;;;11.50;96.70;;;;;;4917866;29;20084;-70
2024/03/12 00:46:13;;;;;;;3.42;1.92;;;11.40;96.70;;;;;;4932945;29;20051;-70
2024/03/12 00:48:43;;;;;;;3.47;1.60;;;11.40;96.70;;;;;;4931649;29;20063;-71
2024/03/12 00:51:15;;;;;;;6.03;1.85;;;11.40;96.70;;;;;;4924717;29;20141;-70
2024/03/12 00:53:46;;;;;;;3.00;1.60;;;11.40;96.70;;;;;;4947936;29;20453;-70
2024/03/12 00:56:19;;;;;;;2.88;1.92;;;11.40;96.70;;;;;;4931651;29;20130;-69
2024/03/12 00:58:52;;;;;;;4.13;2.15;;;11.50;96.70;;;;;;4932444;29;20461;-71
2024/03/12 01:01:21;;;;;;;4.03;1.70;;;11.60;96.70;;;;;;4932407;29;20059;-70
2024/03/12 01:03:54;;;;;;;4.10;1.63;;;11.50;96.70;;;;;;4928715;29;20044;-70
2024/03/12 01:06:28;;;;;;;3.88;1.80;;;11.40;96.70;;;;;;4913061;29;20058;-71
2024/03/12 01:08:57;;;;;;;4.25;1.90;;;11.40;96.70;;;;;;4930466;29;20516;-70
2024/03/12 01:11:26;;;;;;;3.17;1.88;;;11.40;96.70;;;;;;4947579;29;20051;-70
2024/03/12 01:13:58;;;;;;;2.75;2.00;;;11.30;96.70;;;;;;4932656;29;20047;-69
2024/03/12 01:16:29;;;;;;;3.45;1.70;;;11.30;96.70;;;;;;4932823;29;20055;-70
2024/03/12 01:18:58;;;;;;;4.25;1.60;;;11.30;96.70;;;;;;4945757;29;20055;-70
2024/03/12 01:21:29;;;;;;;2.72;1.90;;;11.40;96.70;;;;;;4948715;29;20051;-70
2024/03/12 01:24:01;;;;;;;4.35;2.00;;;11.40;96.70;;;;;;4944766;29;20395;-69
2024/03/12 01:26:32;;;;;;;3.60;2.17;;;11.40;96.70;;;;;;4946732;29;20059;-71
2024/03/12 01:29:03;;;;;;;4.38;2.30;;;11.40;96.70;;;;;;4931116;29;20062;-70
2024/03/12 01:31:34;;;;;;;4.97;2.50;;;11.30;96.70;;;;;;4930000;29;20073;-70
2024/03/12 01:34:02;;;;;;;4.32;2.63;;;11.20;96.70;;;;;;4930640;29;20158;-70
2024/03/12 01:36:37;;;;;;;4.65;2.90;;;11.20;96.70;;;;;;4911564;29;20055;-70
2024/03/12 01:39:09;;;;;;;6.28;2.72;;;11.20;96.70;;;;;;4912835;29;20130;-70
2024/03/12 01:41:41;;;;;;;4.20;2.53;;;11.20;96.70;;;;;;4917904;29;20562;-71
2024/03/12 01:44:13;;;;;;;5.57;2.67;;;11.30;96.70;;;;;;4932512;28;20047;-70
2024/03/12 01:46:42;;;;;;;4.75;3.00;;;11.20;96.70;;;;;;4924161;29;20199;-70
2024/03/12 01:49:13;;;;;;;5.15;3.00;;;11.20;96.70;;;;;;4931439;29;20069;-70
2024/03/12 01:51:43;;;;;;;5.65;3.28;;;11.20;96.70;;;;;;4930948;29;20348;-71
2024/03/12 01:54:14;;;;;;;3.53;2.97;;;11.10;96.70;;;;;;4946999;29;20137;-70
2024/03/12 01:56:43;;;;;;;4.50;3.33;;;11.00;96.70;;;;;;4914051;29;20093;-68
2024/03/12 01:59:15;;;;;;;4.78;3.20;;;11.00;96.70;;;;;;4924082;29;20054;-70
2024/03/12 02:01:48;;;;;;;5.72;3.08;;;11.10;96.70;;;;;;4931721;29;20089;-70
2024/03/12 02:04:21;;;;;;;8.30;3.35;;;11.10;96.70;;;;;;4915198;29;20051;-70
2024/03/12 02:06:53;;;;;;;7.07;3.28;;;11.10;96.70;;;;;;4931720;29;20055;-69
2024/03/12 02:09:25;;;;;;;4.40;3.05;;;11.10;96.70;;;;;;4928843;29;20051;-70
2024/03/12 02:11:54;;;;;;;5.13;2.92;;;11.10;96.70;;;;;;4931000;29;20472;-70
2024/03/12 02:14:24;;;;;;;3.30;2.85;;;11.00;96.70;;;;;;4930752;29;20081;-70
2024/03/12 02:16:56;;;;;;;4.13;2.80;;;11.00;96.70;;;;;;4930976;29;20560;-71
2024/03/12 02:19:24;;;;;;;5.30;3.03;;;11.00;96.70;;;;;;4932012;29;20047;-70
2024/03/12 02:21:56;;;;;;;3.78;2.70;;;11.00;96.70;;;;;;4929858;29;20061;-70
2024/03/12 02:24:31;;;;;;;4.13;2.60;;;10.90;96.70;;;;;;4944736;29;20058;-70
2024/03/12 02:26:59;;;;;;;3.20;1.98;;;10.90;96.70;;;;;;4927822;29;20118;-70
2024/03/12 02:29:28;;;;;;;3.08;1.90;;;10.90;96.70;;;;;;4947102;29;20116;-70
2024/03/12 02:31:57;;;;;;;3.72;1.85;;;10.80;96.70;;;;;;4947362;29;20129;-69
2024/03/12 02:34:29;;;;;;;2.50;1.35;;;10.80;96.70;;;;;;4930521;29;20054;-70
2024/03/12 02:36:57;;;;;;;2.05;1.35;;;10.80;96.70;;;;;;4930597;29;20150;-70
2024/03/12 02:39:27;;;;;;;2.85;1.35;;;10.80;96.70;;;;;;4929997;29;20051;-70
2024/03/12 02:41:57;;;;;;;1.90;1.10;;;10.70;96.70;;;;;;4922341;29;20105;-70
2024/03/12 02:44:26;;;;;;;1.20;1.10;;;10.70;96.70;;;;;;4907707;29;20047;-70
2024/03/12 02:46:56;;;;;;;2.22;1.17;;;10.70;96.70;;;;;;4947343;29;20051;-70
2024/03/12 02:49:27;;;;;;;3.03;1.35;;;10.60;96.70;;;;;;4931113;29;20484;-70
2024/03/12 02:51:57;;;;;;;2.85;1.30;;;10.60;96.70;;;;;;4950364;28;20074;-70
2024/03/12 02:54:27;;;;;;;3.78;1.60;;;10.60;96.70;;;;;;4935632;28;20156;-70
2024/03/12 02:57:00;;;;;;;1.50;1.08;;;10.60;96.70;;;;;;4911809;29;20047;-69
2024/03/12 02:59:30;;;;;;;2.72;1.27;;;10.50;96.70;;;;;;4934617;29;20452;-70
2024/03/12 03:02:01;;;;;;;3.35;1.33;;;10.50;96.70;;;;;;4933994;29;20146;-70
2024/03/12 03:04:36;;;;;;;2.80;1.50;;;10.50;96.70;;;;;;4924300;29;20051;-70
2024/03/12 03:07:06;;;;;;;2.47;1.10;;;10.50;96.70;;;;;;4918378;29;20047;-70
2024/03/12 03:09:36;;;;;;;2.90;1.42;;;10.50;96.70;;;;;;4934990;29;20082;-70
2024/03/12 03:12:08;;;;;;;2.85;1.40;;;10.50;96.70;;;;;;4918303;29;20097;-70
2024/03/12 03:14:37;;;;;;;1.73;1.20;;;10.60;96.70;;;;;;4949795;29;20460;-70
2024/03/12 03:17:07;;;;;;;2.13;1.23;;;10.60;96.70;;;;;;4948061;29;20102;-70
2024/03/12 03:19:37;;;;;;;2.47;1.00;;;10.50;96.70;;;;;;4933108;29;20055;-70
2024/03/12 03:22:07;;;;;;;2.38;1.35;;;10.50;96.70;;;;;;4933082;29;20090;-69
2024/03/12 03:24:37;;;;;;;2.70;1.65;;;10.50;96.70;;;;;;4947672;29;20433;-69
2024/03/12 03:27:07;;;;;;;4.05;1.48;;;10.40;96.70;;;;;;4949713;29;20083;-70
2024/03/12 03:29:39;;;;;;;1.92;1.40;;;10.40;96.70;;;;;;4948630;29;20146;-70
2024/03/12 03:32:09;;;;;;;1.70;1.33;;;10.40;96.70;;;;;;4934025;29;20059;-69
2024/03/12 03:34:38;;;;;;;3.17;1.05;;;10.40;96.70;;;;;;4952034;28;20047;-70
2024/03/12 03:37:07;;;;;;;2.72;1.25;;;10.30;96.70;;;;;;4933679;29;20142;-69
2024/03/12 03:39:37;;;;;;;1.80;1.08;;;10.30;96.70;;;;;;4933953;29;20055;-70
2024/03/12 03:42:09;;;;;;;5.35;1.48;;;10.30;96.70;;;;;;4901080;29;20055;-70
2024/03/12 03:44:39;;;;;;;1.75;1.02;;;10.30;96.70;;;;;;4934044;29;20058;-70
2024/03/12 03:47:09;;;;;;;1.98;0.80;;;10.20;96.70;;;;;;4917082;29;20150;-71
2024/03/12 03:49:39;;;;;;;1.13;0.90;;;10.10;96.70;;;;;;4946492;29;20043;-70
2024/03/12 03:52:09;;;;;;;1.65;0.88;;;10.10;96.70;;;;;;4946522;28;20082;-70
2024/03/12 03:54:39;;;;;;;2.63;1.35;;;10.10;96.70;;;;;;4932431;29;20048;-70
2024/03/12 03:57:09;;;;;;;7.90;1.90;;;10.10;96.70;;;;;;4933117;29;20079;-70
2024/03/12 03:59:39;;;;;;;8.60;1.90;;;10.10;96.70;;;;;;4932784;29;20043;-70
2024/03/12 04:02:11;;;;;;;10.90;2.15;;;10.10;96.70;;;;;;4933259;29;20115;-69
2024/03/12 04:04:42;;;;;;;12.75;2.47;;;10.10;96.70;;;;;;4930114;29;20073;-70
2024/03/12 04:07:11;;;;;;;22.20;2.80;;;10.00;96.70;;;;;;4948491;29;20062;-69
2024/03/12 04:09:40;;;;;;;16.40;2.97;;;10.00;96.70;;;;;;4948076;29;20138;-70
2024/03/12 04:12:11;;;;;;;8.38;1.90;;;10.00;96.70;;;;;;4949056;29;20050;-69
2024/03/12 04:14:42;;;;;;;21.50;2.53;;;10.00;96.70;;;;;;4932062;29;20587;-70
2024/03/12 04:17:11;;;;;;;6.18;1.83;;;10.00;96.70;;;;;;4925302;29;20052;-69
2024/03/12 04:19:42;;;;;;;9.88;2.40;;;10.00;96.70;;;;;;4924208;29;20504;-70
2024/03/12 04:22:12;;;;;;;13.95;2.35;;;10.00;96.70;;;;;;4933075;29;20579;-70
2024/03/12 04:24:43;;;;;;;22.13;3.40;;;10.00;96.70;;;;;;4950444;29;20100;-70
2024/03/12 04:27:17;;;;;;;16.63;2.60;;;10.00;96.70;;;;;;4932446;29;20140;-69
2024/03/12 04:29:46;;;;;;;12.02;2.47;;;10.00;96.70;;;;;;4932603;29;20520;-70
2024/03/12 04:32:15;;;;;;;8.38;2.28;;;10.00;96.70;;;;;;4916935;29;20912;-69
2024/03/12 04:34:46;;;;;;;3.53;2.28;;;10.00;96.70;;;;;;4932471;29;20105;-70
2024/03/12 04:37:17;;;;;;;3.83;2.45;;;10.00;96.70;;;;;;4926098;29;20420;-69
2024/03/12 04:39:46;;;;;;;3.95;2.25;;;10.00;96.70;;;;;;4930668;29;20051;-69
2024/03/12 04:42:17;;;;;;;3.28;1.60;;;10.00;96.70;;;;;;4932078;29;20054;-70
2024/03/12 04:44:46;;;;;;;2.25;1.45;;;10.00;96.70;;;;;;4932213;29;20134;-69
2024/03/12 04:47:15;;;;;;;2.05;1.48;;;10.00;96.70;;;;;;4912293;29;20052;-70
2024/03/12 04:49:49;;;;;;;2.35;1.15;;;10.00;96.70;;;;;;4930156;29;20150;-69
2024/03/12 04:52:20;;;;;;;3.28;1.60;;;10.00;96.70;;;;;;4949529;29;20147;-70
2024/03/12 04:54:51;;;;;;;2.05;1.52;;;9.90;96.70;;;;;;4925847;29;20699;-70
2024/03/12 04:57:22;;;;;;;1.70;1.30;;;10.00;96.70;;;;;;4914790;29;20052;-70
2024/03/12 04:59:51;;;;;;;2.50;1.40;;;10.00;96.70;;;;;;4949219;29;20135;-69
2024/03/12 05:02:19;;;;;;;3.13;1.98;;;10.00;96.70;;;;;;4932888;29;20158;-70
2024/03/12 05:04:48;;;;;;;4.05;2.22;;;10.10;96.70;;;;;;4931501;29;20118;-69
2024/03/12 05:07:21;;;;;;;3.10;1.80;;;10.10;96.70;;;;;;4932300;29;20051;-70
2024/03/12 05:09:49;;;;;;;5.50;2.20;;;10.20;96.70;;;;;;4932034;29;20055;-70
2024/03/12 05:12:21;;;;;;;4.00;2.28;;;10.20;96.70;;;;;;4931469;29;20055;-70
2024/03/12 05:14:52;;;;;;;5.47;2.83;;;10.10;96.70;;;;;;4926192;29;20568;-71
2024/03/12 05:17:21;;;;;;;10.63;3.13;;;10.10;96.70;;;;;;4947415;29;20058;-71
2024/03/12 05:19:51;;;;;;;6.07;3.03;;;10.10;96.70;;;;;;4932419;29;20051;-69
2024/03/12 05:22:22;;;;;;;9.48;2.65;;;10.10;96.70;;;;;;4916810;29;20072;-70
2024/03/12 05:24:51;;;;;;;13.77;3.95;;;10.10;96.70;;;;;;4931728;29;20079;-70
2024/03/12 05:27:32;;;;;;;13.38;2.80;;;10.20;96.70;;;;;;4928512;29;20138;-67
2024/03/12 05:30:10;;;;;;;15.98;3.55;;;10.10;96.70;;;;;;4938442;29;20066;-68
2024/03/12 05:33:03;;;;;;;13.52;3.47;;;10.10;96.70;;;;;;4912820;29;20777;-67
2024/03/12 05:35:33;;;;;;;24.80;4.30;;;10.00;96.70;;;;;;4914181;29;20043;-68
2024/03/12 05:38:03;;;;;;;20.85;4.00;;;10.10;96.70;;;;;;4914877;29;20062;-68
2024/03/12 05:40:46;;;;;;;19.63;3.38;;;10.10;96.70;;;;;;4931279;29;20138;-68
2024/03/12 05:49:14;;;;;;;6.03;2.35;;;10.10;96.70;;;;;;4940481;29;20444;-67
2024/03/12 05:51:43;;;;;;;9.45;2.35;;;10.00;96.70;;;;;;4914983;29;20047;-67
2024/03/12 05:54:12;;;;;;;5.78;1.60;;;10.00;96.70;;;;;;4931224;29;20077;-68
2024/03/12 05:56:42;;;;;;;3.20;2.00;;;9.90;96.70;;;;;;4924282;29;20147;-70
2024/03/12 05:59:11;;;;;;;4.68;1.63;;;9.90;96.70;;;;;;4917808;29;20050;-70
2024/03/12 06:01:42;;;;;;;4.20;2.13;;;9.90;96.70;;;;;;4907831;29;20074;-70
2024/03/12 06:04:10;;;;;;;5.10;2.10;;;9.90;96.70;;;;;;4931276;29;20075;-70
2024/03/12 06:06:39;;;;;;;5.60;2.33;;;9.90;96.70;;;;;;4915421;29;20161;-70
2024/03/12 06:09:09;;;;;;;3.15;2.10;;;9.90;96.70;;;;;;4931818;29;20051;-70
2024/03/12 06:11:39;;;;;;;5.50;3.15;;;9.90;96.70;;;;;;4923053;29;20058;-70
2024/03/12 06:14:09;;;;;;;4.72;2.60;;;9.90;96.70;;;;;;4938448;29;20055;-70
2024/03/12 06:16:37;;;;;;;3.72;1.70;;;10.00;96.70;;;;;;4915667;29;20051;-70
2024/03/12 06:19:08;;;;;;;2.90;1.80;;;10.00;96.70;;;;;;4931070;29;20062;-70
2024/03/12 06:21:39;;;;;;;6.47;1.77;;;10.00;96.70;;;;;;4915025;29;20069;-70
2024/03/12 06:24:08;;;;;;;2.85;1.60;;;10.00;96.70;;;;;;4930970;29;20122;-69
2024/03/12 06:26:37;;;;;;;2.28;1.60;;;9.80;96.70;;;;;;4947345;28;20138;-70
2024/03/12 06:29:06;;;;;;;2.40;1.23;;;9.90;96.70;;;;;;4927895;29;20099;-70
2024/03/12 06:31:34;;;;;;;3.88;2.13;;;10.00;96.70;;;;;;4935689;29;20907;-70
2024/03/12 06:34:04;;;;;;;3.45;1.90;;;10.00;96.70;;;;;;4919208;29;20054;-71
2024/03/12 06:36:35;;;;;;;6.97;2.65;;;10.10;96.70;;;;;;4916839;29;20051;-70
2024/03/12 06:39:07;;;;;;;4.25;2.72;;;10.10;96.70;;;;;;4935093;29;20063;-70
2024/03/12 06:41:36;;;;;;;7.53;2.97;;;10.10;96.70;;;;;;4934047;29;20534;-71
2024/03/12 06:44:07;;;;;;;5.70;2.83;;;10.20;96.70;;;;;;4931049;29;20417;-70
2024/03/12 06:46:37;;;;;;;5.65;2.78;;;10.20;96.70;;;;;;4910508;29;20051;-70
2024/03/12 06:49:09;;;;;;;6.60;2.65;;;10.30;96.70;;;;;;4917928;29;20146;-70
2024/03/12 06:51:39;;;;;;;4.22;2.47;;;10.40;96.70;;;;;;4917119;29;20051;-70
2024/03/12 06:54:11;;;;;;;6.38;2.60;;;10.40;96.70;;;;;;4946596;29;20055;-70
2024/03/12 06:56:43;;;;;;;8.65;3.90;;;10.30;96.70;;;;;;4929318;29;20110;-70
2024/03/12 06:59:12;;;;;;;7.88;4.57;;;10.30;96.70;;;;;;4934236;29;20591;-69
2024/03/12 07:01:45;;;;;;;10.35;4.20;;;10.30;96.70;;;;;;4933996;29;20055;-70
2024/03/12 07:04:15;;;;;;;8.48;4.82;;;10.30;96.70;;;;;;4933263;29;20170;-70
2024/03/12 07:06:54;;;;;;;14.23;6.15;;;10.40;96.70;;;;;;4933231;29;20047;-70
2024/03/12 07:09:26;;;;;;;16.30;6.68;;;10.60;96.70;;;;;;4933586;29;20078;-70
2024/03/12 07:11:58;;;;;;;26.10;7.57;;;10.50;96.70;;;;;;4930759;29;20060;-71
2024/03/12 07:14:29;;;;;;;15.23;7.65;;;10.60;96.70;;;;;;4939991;29;20055;-70
2024/03/12 07:16:58;;;;;;;14.95;6.80;;;10.60;96.70;;;;;;4933484;29;20055;-69
2024/03/12 07:19:27;;;;;;;13.32;7.10;;;10.70;96.70;;;;;;4918178;29;20119;-70
2024/03/12 07:21:57;;;;;;;12.65;7.35;;;10.70;96.70;;;;;;4944690;29;20665;-71
2024/03/12 07:24:28;;;;;;;15.00;7.93;;;10.90;96.70;;;;;;4931573;29;20053;-68
2024/03/12 07:26:59;;;;;;;21.83;8.55;;;10.80;96.70;;;;;;4933105;29;20520;-68
2024/03/12 07:29:30;;;;;;;19.98;8.07;;;10.90;96.70;;;;;;4933863;29;20051;-66
2024/03/12 07:32:01;;;;;;;14.32;7.10;;;10.80;96.70;;;;;;4947622;29;20142;-68
2024/03/12 07:34:32;;;;;;;19.95;7.88;;;10.70;96.70;;;;;;4951992;28;20054;-68
2024/03/12 07:37:03;;;;;;;15.02;7.78;;;10.80;96.70;;;;;;4941789;28;20452;-69
2024/03/12 07:39:36;;;;;;;19.08;7.65;;;10.80;96.70;;;;;;4931721;29;20105;-68
2024/03/12 07:42:09;;;;;;;15.40;7.30;;;10.90;96.70;;;;;;4940484;29;20059;-68
2024/03/12 07:44:44;;;;;;;15.30;8.10;;;11.00;96.70;;;;;;4933620;29;20437;-68
2024/03/12 07:47:12;;;;;;;13.75;7.85;;;11.00;96.70;;;;;;4925697;29;20055;-68
2024/03/12 07:49:43;;;;;;;16.60;7.80;;;11.00;96.70;;;;;;4932934;29;20098;-68
2024/03/12 07:52:13;;;;;;;20.00;7.03;;;11.00;96.70;;;;;;4934395;28;20118;-68
2024/03/12 07:54:43;;;;;;;13.00;7.65;;;10.90;96.70;;;;;;4920076;29;20055;-68
2024/03/12 07:57:13;;;;;;;13.32;8.60;;;11.00;96.70;;;;;;4930750;29;20864;-68
2024/03/12 07:59:48;;;;;;;19.08;8.40;;;11.10;96.70;;;;;;4918424;29;20087;-69
2024/03/12 08:02:21;;;;;;;15.27;7.97;;;11.20;96.70;;;;;;4933127;29;20066;-68
2024/03/12 08:04:50;;;;;;;12.65;9.52;;;11.20;96.70;;;;;;4915608;29;20058;-68
2024/03/12 08:07:21;;;;;;;15.82;10.60;;;11.30;96.70;;;;;;4933222;29;20047;-68
2024/03/12 08:09:51;;;;;;;15.68;10.23;;;11.40;96.70;;;;;;4941186;29;20084;-68
2024/03/12 08:12:21;;;;;;;15.65;11.00;;;11.40;96.70;;;;;;4933185;29;20043;-68
2024/03/12 08:14:50;;;;;;;19.60;10.15;;;11.40;96.70;;;;;;4933061;29;20536;-67
2024/03/12 08:17:19;;;;;;;14.27;9.68;;;11.40;96.70;;;;;;4948500;29;20047;-68
2024/03/12 08:19:51;;;;;;;14.63;9.77;;;11.50;96.70;;;;;;4930333;29;20063;-68
2024/03/12 08:22:27;;;;;;;14.73;11.07;;;11.50;96.70;;;;;;4932553;29;20070;-68
2024/03/12 08:24:59;;;;;;;17.08;10.23;;;11.60;96.70;;;;;;4933136;29;20055;-69
2024/03/12 08:27:29;;;;;;;16.33;9.90;;;11.60;96.70;;;;;;4948279;29;20043;-68
2024/03/12 08:29:58;;;;;;;15.32;9.38;;;11.60;96.70;;;;;;4913906;29;20051;-67
2024/03/12 08:32:29;;;;;;;12.75;9.57;;;11.70;96.70;;;;;;4950575;29;20047;-69
2024/03/12 08:35:02;;;;;;;14.60;10.40;;;11.70;96.70;;;;;;4932658;29;20430;-68
2024/03/12 08:37:33;;;;;;;15.73;10.80;;;11.80;96.70;;;;;;4933245;29;20044;-68
2024/03/12 08:40:08;;;;;;;18.15;11.52;;;11.90;96.70;;;;;;4923541;29;20062;-69
2024/03/12 08:42:38;;;;;;;17.88;10.57;;;12.00;96.70;;;;;;4948320;29;20658;-68
2024/03/12 08:45:22;;;;;;;16.00;10.45;;;12.00;96.70;;;;;;4931813;29;20058;-68
2024/03/12 08:47:52;;;;;;;15.23;10.43;;;12.10;96.70;;;;;;4948498;28;20070;-69
2024/03/12 08:50:24;;;;;;;15.73;10.43;;;12.20;96.70;;;;;;4947091;29;20054;-69
2024/03/12 08:52:55;;;;;;;16.02;10.93;;;12.20;96.70;;;;;;4922683;29;20063;-69
2024/03/12 08:55:26;;;;;;;15.23;10.73;;;12.30;96.70;;;;;;4933228;29;20106;-68
2024/03/12 08:57:56;;;;;;;16.80;12.90;;;12.40;96.70;;;;;;4942901;29;20575;-69
2024/03/12 09:00:28;;;;;;;18.98;13.55;;;12.70;96.70;;;;;;4929644;29;20063;-69
2024/03/12 09:02:59;;;;;;;21.65;14.85;;;12.70;96.70;;;;;;4930140;29;20059;-68
2024/03/12 09:05:28;;;;;;;29.27;19.35;;;12.60;96.70;;;;;;4932244;29;20070;-68
2024/03/12 09:07:59;;;;;;;37.45;21.17;;;12.70;96.70;;;;;;4925951;29;20138;-68
2024/03/12 09:10:29;;;;;;;27.95;18.15;;;12.50;96.70;;;;;;4946413;29;20512;-68
2024/03/12 09:12:59;;;;;;;25.77;16.15;;;12.60;96.70;;;;;;4947707;29;20101;-69
2024/03/12 09:15:28;;;;;;;26.33;17.65;;;12.70;96.70;;;;;;4932458;29;20576;-68
2024/03/12 09:18:04;;;;;;;26.67;16.40;;;12.80;96.70;;;;;;4932142;29;20166;-68
2024/03/12 09:20:36;;;;;;;22.58;15.25;;;12.90;96.70;;;;;;4932669;29;20557;-69
2024/03/12 09:23:08;;;;;;;22.45;15.10;;;13.10;96.70;;;;;;4931599;29;20051;-69
2024/03/12 09:25:37;;;;;;;23.27;14.02;;;13.30;96.70;;;;;;4929116;29;20063;-68
2024/03/12 09:28:06;;;;;;;22.45;14.98;;;13.40;96.70;;;;;;4946547;28;20141;-69
2024/03/12 09:30:34;;;;;;;21.80;13.73;;;13.40;96.70;;;;;;4930952;29;20059;-68
2024/03/12 09:33:05;;;;;;;17.17;11.63;;;13.40;96.70;;;;;;4929975;29;20101;-67
2024/03/12 09:35:33;;;;;;;17.17;10.50;;;13.50;96.70;;;;;;4924050;29;20048;-68
2024/03/12 09:38:02;;;;;;;16.17;10.02;;;13.60;96.70;;;;;;4930520;29;20118;-68
2024/03/12 09:40:34;;;;;;;14.23;9.77;;;13.40;96.70;;;;;;4900324;29;20059;-69
2024/03/12 09:43:05;;;;;;;13.38;9.05;;;13.20;96.70;;;;;;4941246;28;20052;-69
2024/03/12 09:45:36;;;;;;;13.68;8.50;;;13.10;96.70;;;;;;4928162;29;20397;-68
2024/03/12 09:48:05;;;;;;;11.85;7.53;;;13.10;96.70;;;;;;4922431;29;20070;-68
2024/03/12 09:50:37;;;;;;;12.13;7.70;;;13.10;96.70;;;;;;4930943;29;20452;-67
2024/03/12 09:53:07;;;;;;;9.43;7.45;;;13.20;96.70;;;;;;4915353;29;20055;-68
2024/03/12 09:55:38;;;;;;;8.48;6.93;;;13.20;96.70;;;;;;4930635;29;20055;-69
2024/03/12 09:58:08;;;;;;;8.52;6.53;;;13.30;96.70;;;;;;4946588;29;20318;-68
2024/03/12 10:00:37;;;;;;;7.30;5.90;;;13.40;96.70;;;;;;4912243;29;20055;-68
2024/03/12 10:03:09;;;;;;;8.10;5.70;;;13.40;96.70;;;;;;4944555;29;20059;-68
2024/03/12 10:05:40;;;;;;;8.77;5.28;;;13.50;96.70;;;;;;4930462;29;20047;-68
2024/03/12 10:08:14;;;;;;;7.25;4.72;;;13.50;96.70;;;;;;4930809;29;20055;-68
2024/03/12 10:10:46;;;;;;;7.13;5.63;;;13.60;96.70;;;;;;4946640;29;20050;-68
2024/03/12 10:13:17;;;;;;;7.20;5.53;;;13.70;96.70;;;;;;4937425;29;20083;-68
2024/03/12 10:15:52;;;;;;;7.10;5.78;;;13.80;96.70;;;;;;4915303;29;20149;-68
2024/03/12 10:18:21;;;;;;;8.57;6.50;;;13.80;96.70;;;;;;4913259;29;20504;-69
2024/03/12 10:20:54;;;;;;;10.68;6.15;;;13.90;96.70;;;;;;4913780;29;20047;-68
2024/03/12 10:23:25;;;;;;;8.15;6.10;;;14.00;96.70;;;;;;4928789;29;20074;-68
2024/03/12 10:26:15;;;;;;;9.98;7.00;;;14.20;96.70;;;;;;4922496;29;20047;-68
2024/03/12 10:28:46;;;;;;;9.77;6.20;;;14.50;96.70;;;;;;4946015;29;20043;-68
2024/03/12 10:31:19;;;;;;;10.90;7.78;;;14.60;96.70;;;;;;4947447;29;20058;-67
2024/03/12 10:33:49;;;;;;;9.80;7.03;;;14.60;96.70;;;;;;4922447;29;20431;-68
2024/03/12 10:36:30;;;;;;;15.07;7.50;;;14.70;96.70;;;;;;4945986;29;20066;-68
2024/03/12 10:39:12;;;;;;;10.75;7.68;;;14.80;96.70;;;;;;4928234;29;20051;-67
2024/03/12 10:41:55;;;;;;;9.80;7.25;;;15.00;96.70;;;;;;4923491;29;20059;-68
2024/03/12 10:44:24;;;;;;;11.05;7.53;;;15.20;96.70;;;;;;4946758;29;20062;-68
2024/03/12 10:46:54;;;;;;;12.77;8.02;;;15.30;96.70;;;;;;4906657;29;20090;-68
2024/03/12 10:49:26;;;;;;;10.98;7.75;;;15.40;96.70;;;;;;4930317;29;20145;-68
2024/03/12 10:51:58;;;;;;;11.40;8.07;;;15.30;96.70;;;;;;4942724;29;20118;-68
2024/03/12 10:54:27;;;;;;;13.43;8.13;;;15.30;96.70;;;;;;4937841;29;20062;-68
2024/03/12 10:57:04;;;;;;;11.60;8.13;;;15.40;96.70;;;;;;4946566;29;20144;-69
2024/03/12 10:59:36;;;;;;;12.13;6.47;;;15.40;96.70;;;;;;4921742;29;20055;-67
2024/03/12 11:02:07;;;;;;;8.35;6.45;;;15.50;96.70;;;;;;4923413;29;20090;-68
2024/03/12 11:04:38;;;;;;;10.82;6.78;;;15.50;96.70;;;;;;4938736;29;20042;-68
2024/03/12 11:07:10;;;;;;;10.02;6.22;;;15.50;96.70;;;;;;4927332;29;20198;-68
2024/03/12 11:09:40;;;;;;;9.70;5.72;;;15.50;96.70;;;;;;4923640;29;20055;-68
2024/03/12 11:12:10;;;;;;;7.88;5.47;;;15.50;96.70;;;;;;4946117;28;20062;-68
2024/03/12 11:14:38;;;;;;;7.25;4.65;;;15.50;96.70;;;;;;4934472;29;20074;-68
2024/03/12 11:17:25;;;;;;;4.95;3.95;;;15.60;96.70;;;;;;4920175;29;20047;-68
2024/03/12 11:19:56;;;;;;;6.47;4.50;;;15.70;96.70;;;;;;4920394;29;20051;-68
2024/03/12 11:22:28;;;;;;;6.13;4.28;;;15.90;96.70;;;;;;4933964;29;20055;-68
2024/03/12 11:24:57;;;;;;;4.50;3.53;;;15.70;96.70;;;;;;4918260;29;20078;-67
2024/03/12 11:27:34;;;;;;;6.18;3.45;;;15.70;96.70;;;;;;4934480;29;20468;-68
2024/03/12 11:30:18;;;;;;;5.70;3.10;;;15.80;96.70;;;;;;4934437;29;20162;-68
2024/03/12 11:32:50;;;;;;;4.30;3.03;;;15.70;96.70;;;;;;4932399;29;20051;-68
2024/03/12 11:35:30;;;;;;;3.67;2.25;;;15.70;96.70;;;;;;4912720;29;20082;-68
2024/03/12 11:38:05;;;;;;;4.78;2.55;;;16.10;96.70;;;;;;4917411;29;20063;-68
2024/03/12 11:40:47;;;;;;;4.47;2.20;;;16.30;96.70;;;;;;4933651;29;20634;-68
2024/03/12 11:43:37;;;;;;;3.72;2.13;;;16.40;96.70;;;;;;4932568;29;20147;-68
2024/03/12 11:46:08;;;;;;;5.40;2.20;;;16.30;96.70;;;;;;4933843;29;20125;-69
2024/03/12 11:48:40;;;;;;;3.30;2.13;;;16.40;96.70;;;;;;4947864;29;20043;-68
2024/03/12 11:51:11;;;;;;;3.65;2.47;;;16.70;96.70;;;;;;4928019;29;20114;-68
2024/03/12 11:53:42;;;;;;;2.70;2.03;;;16.80;96.70;;;;;;4934090;29;20595;-69
2024/03/12 11:56:19;;;;;;;4.57;2.90;;;16.70;96.70;;;;;;4947506;29;20499;-69
2024/03/12 11:58:54;;;;;;;5.45;1.63;;;16.70;96.70;;;;;;4946787;29;20051;-68
2024/03/12 12:01:35;;;;;;;2.40;1.15;;;16.70;96.70;;;;;;4933262;29;20059;-68
2024/03/12 12:04:11;;;;;;;2.65;1.27;;;16.80;96.70;;;;;;4931203;29;20051;-68
2024/03/12 12:06:43;;;;;;;1.85;0.82;;;17.10;96.70;;;;;;4933075;29;20055;-68
2024/03/12 12:09:11;;;;;;;4.20;1.38;;;17.10;96.70;;;;;;4948967;29;20054;-68
2024/03/12 12:11:43;;;;;;;3.17;1.33;;;17.40;96.70;;;;;;4932385;29;20146;-68
2024/03/12 12:14:13;;;;;;;2.67;1.55;;;17.50;96.70;;;;;;4933269;29;20492;-68
2024/03/12 12:16:42;;;;;;;4.05;1.20;;;17.70;96.70;;;;;;4931853;29;20051;-68
2024/03/12 12:19:13;;;;;;;2.67;1.20;;;17.70;96.70;;;;;;4925352;29;20051;-68
2024/03/12 12:21:52;;;;;;;1.20;0.73;;;17.70;96.70;;;;;;4934716;29;20055;-68
2024/03/12 12:24:24;;;;;;;3.17;0.70;;;17.80;96.70;;;;;;4916951;29;20058;-68
2024/03/12 12:26:54;;;;;;;2.08;0.70;;;17.80;96.70;;;;;;4932507;29;20055;-68
2024/03/12 12:29:28;;;;;;;2.13;0.60;;;17.90;96.70;;;;;;4925248;29;20078;-68
2024/03/12 12:31:58;;;;;;;0.70;0.50;;;17.80;96.70;;;;;;4922620;29;20130;-67
2024/03/12 12:34:29;;;;;;;3.33;0.70;;;17.80;96.70;;;;;;4916903;29;20047;-68
2024/03/12 12:36:59;;;;;;;2.15;0.80;;;17.60;96.70;;;;;;4932610;29;20050;-68
2024/03/12 12:39:34;;;;;;;1.42;0.77;;;17.60;96.70;;;;;;4932096;29;20047;-67
2024/03/12 12:42:21;;;;;;;1.80;0.80;;;17.60;96.70;;;;;;4935026;29;20540;-68
2024/03/12 12:44:53;;;;;;;1.95;0.30;;;17.70;96.70;;;;;;4924393;29;20055;-67
2024/03/12 12:47:25;;;;;;;3.75;0.50;;;17.70;96.70;;;;;;4932330;29;20133;-68
2024/03/12 12:49:54;;;;;;;3.63;0.85;;;17.70;96.70;;;;;;4915708;29;20059;-68
2024/03/12 12:52:24;;;;;;;1.60;0.40;;;17.70;96.70;;;;;;4917226;29;20051;-68
2024/03/12 12:54:57;;;;;;;1.25;0.50;;;17.70;96.70;;;;;;4910433;29;20059;-68
2024/03/12 12:57:30;;;;;;;2.30;0.40;;;17.80;96.70;;;;;;4931435;29;20051;-66
2024/03/12 13:00:14;;;;;;;0.95;0.63;;;17.90;96.70;;;;;;4941773;29;20054;-68
2024/03/12 13:02:46;;;;;;;3.17;0.68;;;18.00;96.70;;;;;;4916536;29;20215;-68
2024/03/12 13:05:20;;;;;;;3.20;0.73;;;17.90;96.70;;;;;;4932691;29;20614;-68
2024/03/12 13:07:49;;;;;;;4.53;0.80;;;17.80;96.70;;;;;;4932183;29;20500;-68
2024/03/12 13:10:23;;;;;;;2.22;0.70;;;17.90;96.70;;;;;;4917151;29;20051;-68